Time;durP1;ratioP1;P1;durP2;ratioP2;P2;SDS_P1;SDS_P2;PMS_P1;PMS_P2;Temp;Humidity;BMP_temperature;BMP_pressure;BME280_temperature;BME280_humidity;BME280_pressure;Samples;Min_cycle;Max_cycle;Signal;HPM_P1;HPM_P2
2023/09/04 00:00:32;;;;;;;3.42;0.90;;;13.60;99.90;;;;;;5076241;28;20388;-74
2023/09/04 00:02:58;;;;;;;1.58;0.93;;;13.50;99.90;;;;;;5076680;28;20035;-74
2023/09/04 00:05:23;;;;;;;1.90;0.50;;;13.50;99.90;;;;;;5076116;28;20034;-74
2023/09/04 00:07:49;;;;;;;2.55;0.98;;;13.50;99.90;;;;;;5076150;28;20120;-74
2023/09/04 00:10:15;;;;;;;3.17;0.55;;;13.50;99.90;;;;;;5076255;28;20020;-74
2023/09/04 00:12:40;;;;;;;1.63;0.90;;;13.40;99.90;;;;;;5075906;28;20545;-74
2023/09/04 00:15:06;;;;;;;1.02;0.73;;;13.40;99.90;;;;;;5058067;28;20013;-74
2023/09/04 00:17:33;;;;;;;1.20;0.80;;;13.40;99.90;;;;;;5058010;28;20395;-74
2023/09/04 00:19:58;;;;;;;2.90;0.80;;;13.30;99.90;;;;;;5075632;28;20028;-74
2023/09/04 00:22:27;;;;;;;2.55;0.57;;;13.40;99.90;;;;;;5057808;28;20020;-74
2023/09/04 00:24:53;;;;;;;2.45;0.70;;;13.30;99.90;;;;;;5075473;28;20016;-74
2023/09/04 00:27:19;;;;;;;1.50;0.80;;;13.30;99.90;;;;;;5075776;28;20074;-74
2023/09/04 00:29:45;;;;;;;0.82;0.52;;;13.20;99.90;;;;;;5057798;28;20109;-74
2023/09/04 00:32:11;;;;;;;2.80;0.60;;;13.20;99.90;;;;;;5075676;28;20021;-74
2023/09/04 00:34:37;;;;;;;3.30;0.75;;;13.20;99.90;;;;;;5075563;28;20043;-74
2023/09/04 00:37:04;;;;;;;3.50;1.10;;;13.10;99.90;;;;;;5075489;28;20086;-73
2023/09/04 00:39:29;;;;;;;1.30;0.60;;;13.10;99.90;;;;;;5075828;28;20097;-74
2023/09/04 00:41:55;;;;;;;2.53;0.80;;;13.20;99.90;;;;;;5075652;28;20104;-74
2023/09/04 00:44:20;;;;;;;2.80;1.05;;;13.20;99.90;;;;;;5057404;28;20098;-74
2023/09/04 00:46:46;;;;;;;2.78;0.90;;;13.10;99.90;;;;;;5075662;28;20051;-74
2023/09/04 00:49:12;;;;;;;1.95;1.35;;;13.10;99.90;;;;;;5075377;28;20475;-74
2023/09/04 00:51:39;;;;;;;1.38;0.90;;;13.10;99.90;;;;;;5075324;28;20059;-74
2023/09/04 00:54:07;;;;;;;4.10;1.23;;;13.20;99.90;;;;;;5075288;28;20074;-74
2023/09/04 00:56:34;;;;;;;0.82;0.75;;;13.10;99.90;;;;;;5057447;28;20021;-73
2023/09/04 00:58:59;;;;;;;2.85;0.93;;;13.10;99.90;;;;;;5057243;28;20028;-74
2023/09/04 01:01:26;;;;;;;1.70;0.77;;;13.10;99.90;;;;;;5057275;28;20442;-74
2023/09/04 01:03:52;;;;;;;2.08;0.90;;;13.10;99.90;;;;;;5056965;28;20064;-74
2023/09/04 01:06:17;;;;;;;2.40;1.30;;;13.00;99.90;;;;;;5074904;28;20069;-74
2023/09/04 01:08:43;;;;;;;2.28;0.98;;;13.00;99.90;;;;;;5075164;28;20029;-74
2023/09/04 01:11:16;;;;;;;2.28;0.75;;;13.00;99.90;;;;;;5056887;28;20073;-74
2023/09/04 01:13:49;;;;;;;1.65;0.60;;;12.90;99.90;;;;;;5074834;28;20021;-74
2023/09/04 01:16:17;;;;;;;2.47;1.17;;;12.90;99.90;;;;;;5074816;28;20099;-74
2023/09/04 01:18:43;;;;;;;2.15;0.82;;;12.80;99.90;;;;;;5074684;28;20024;-74
2023/09/04 01:21:08;;;;;;;3.95;0.82;;;12.80;99.90;;;;;;5056836;28;20013;-74
2023/09/04 01:23:34;;;;;;;3.92;0.85;;;12.70;99.90;;;;;;5056698;28;20031;-74
2023/09/04 01:26:20;;;;;;;1.05;0.70;;;12.70;99.90;;;;;;5074602;28;20031;-74
2023/09/04 01:28:48;;;;;;;2.45;1.00;;;12.70;99.90;;;;;;5074593;28;20029;-74
2023/09/04 01:31:35;;;;;;;1.55;0.50;;;12.70;99.90;;;;;;5074655;28;20035;-74
2023/09/04 01:34:08;;;;;;;1.67;0.85;;;12.60;99.90;;;;;;5056421;28;20479;-74
2023/09/04 01:36:35;;;;;;;1.10;0.80;;;12.50;99.90;;;;;;5074327;28;20403;-74
2023/09/04 01:39:01;;;;;;;3.42;0.95;;;12.50;99.90;;;;;;5074283;28;20376;-73
2023/09/04 01:41:26;;;;;;;3.10;0.88;;;12.60;99.90;;;;;;5074373;28;20021;-74
2023/09/04 01:43:53;;;;;;;1.48;0.90;;;12.50;99.90;;;;;;5056366;28;20034;-74
2023/09/04 01:46:19;;;;;;;2.03;0.90;;;12.40;99.90;;;;;;5056287;28;20028;-74
2023/09/04 01:48:45;;;;;;;1.58;0.73;;;12.40;99.90;;;;;;5074113;28;20120;-74
2023/09/04 01:51:10;;;;;;;2.35;0.80;;;12.40;99.90;;;;;;5074262;28;20027;-74
2023/09/04 01:53:36;;;;;;;1.60;0.75;;;12.40;99.90;;;;;;5074033;28;20033;-74
2023/09/04 01:56:02;;;;;;;1.05;0.90;;;12.30;99.90;;;;;;5056030;28;20019;-74
2023/09/04 01:58:28;;;;;;;2.28;0.60;;;12.30;99.90;;;;;;5056058;28;20052;-74
2023/09/04 02:00:53;;;;;;;2.83;1.13;;;12.30;99.90;;;;;;5074192;28;20013;-74
2023/09/04 02:03:19;;;;;;;1.83;1.10;;;12.30;99.90;;;;;;5056058;28;20557;-74
2023/09/04 02:05:45;;;;;;;1.25;0.63;;;12.30;99.90;;;;;;5074120;28;20357;-74
2023/09/04 02:08:10;;;;;;;2.40;0.75;;;12.20;99.90;;;;;;5056054;28;20023;-74
2023/09/04 02:10:36;;;;;;;3.75;1.20;;;12.30;99.90;;;;;;5055878;28;20035;-74
2023/09/04 02:13:02;;;;;;;1.73;0.65;;;12.30;99.90;;;;;;5073628;28;20063;-74
2023/09/04 02:15:31;;;;;;;1.50;0.60;;;12.20;99.90;;;;;;5073064;28;20016;-74
2023/09/04 02:17:56;;;;;;;1.40;0.60;;;12.20;99.90;;;;;;5073841;28;20024;-74
2023/09/04 02:20:22;;;;;;;0.82;0.52;;;12.10;99.90;;;;;;5073351;28;20078;-74
2023/09/04 02:22:48;;;;;;;0.80;0.50;;;12.20;99.90;;;;;;5055808;28;20499;-74
2023/09/04 02:25:14;;;;;;;1.15;0.65;;;12.20;99.90;;;;;;5073935;28;20017;-74
2023/09/04 02:27:39;;;;;;;3.10;0.73;;;12.10;99.90;;;;;;5073462;28;20361;-74
2023/09/04 02:30:07;;;;;;;2.25;0.77;;;12.10;99.90;;;;;;5073438;28;20104;-74
2023/09/04 02:32:33;;;;;;;2.10;0.95;;;12.10;99.90;;;;;;5073507;28;20103;-74
2023/09/04 02:34:59;;;;;;;2.13;1.20;;;12.10;99.90;;;;;;5055450;28;20031;-74
2023/09/04 02:37:26;;;;;;;3.72;1.02;;;12.20;99.90;;;;;;5073543;28;20029;-74
2023/09/04 02:39:51;;;;;;;1.67;1.00;;;12.10;99.90;;;;;;5073474;28;20021;-74
2023/09/04 02:42:17;;;;;;;2.10;1.42;;;12.20;99.90;;;;;;5072029;28;20035;-73
2023/09/04 02:44:42;;;;;;;2.10;1.13;;;12.10;99.90;;;;;;5053247;28;20036;-73
2023/09/04 02:47:08;;;;;;;2.95;1.23;;;12.10;99.90;;;;;;5053517;28;20028;-74
2023/09/04 02:49:33;;;;;;;1.95;1.08;;;12.10;99.90;;;;;;5053219;28;20028;-74
2023/09/04 02:51:59;;;;;;;2.63;1.42;;;12.20;99.90;;;;;;5053243;28;20021;-74
2023/09/04 02:54:25;;;;;;;2.45;1.60;;;12.20;99.90;;;;;;5053052;28;20435;-74
2023/09/04 02:56:51;;;;;;;4.25;1.30;;;12.20;99.90;;;;;;5053109;28;20033;-74
2023/09/04 02:59:16;;;;;;;3.08;1.40;;;12.20;99.90;;;;;;5053158;28;20021;-74
2023/09/04 03:01:42;;;;;;;3.65;1.33;;;12.30;99.90;;;;;;5053041;28;20014;-74
2023/09/04 03:04:08;;;;;;;2.45;1.40;;;12.30;99.90;;;;;;5035338;28;20032;-74
2023/09/04 03:06:33;;;;;;;1.55;1.00;;;12.30;99.90;;;;;;5053097;28;20052;-74
2023/09/04 03:08:59;;;;;;;3.35;1.20;;;12.30;99.90;;;;;;5053236;28;20025;-74
2023/09/04 03:11:25;;;;;;;3.30;1.25;;;12.30;99.90;;;;;;5053247;28;20025;-74
2023/09/04 03:13:53;;;;;;;2.30;1.30;;;12.30;99.90;;;;;;5035350;28;20025;-74
2023/09/04 03:16:19;;;;;;;1.98;1.08;;;13.10;99.90;;;;;;5052858;28;20021;-74
2023/09/04 03:18:44;;;;;;;6.20;1.45;;;12.30;99.90;;;;;;5053197;28;20435;-74
2023/09/04 03:21:10;;;;;;;2.53;1.38;;;12.20;99.90;;;;;;5035198;28;20021;-74
2023/09/04 03:23:35;;;;;;;4.22;1.30;;;12.20;99.90;;;;;;5072081;28;20025;-74
2023/09/04 03:26:01;;;;;;;4.00;1.13;;;12.10;99.90;;;;;;5073117;28;20021;-74
2023/09/04 03:28:26;;;;;;;2.67;1.48;;;12.10;99.90;;;;;;5075313;28;20475;-74
2023/09/04 03:30:52;;;;;;;5.63;1.77;;;12.00;99.90;;;;;;5076855;28;20024;-74
2023/09/04 03:33:17;;;;;;;1.98;1.20;;;12.00;99.90;;;;;;5076833;28;20039;-73
2023/09/04 03:35:43;;;;;;;3.15;1.10;;;11.90;99.90;;;;;;5077186;28;20029;-74
2023/09/04 03:38:09;;;;;;;2.13;1.05;;;11.90;99.90;;;;;;5058888;28;20032;-74
2023/09/04 03:40:35;;;;;;;2.45;1.40;;;11.90;99.90;;;;;;5058762;28;20032;-74
2023/09/04 03:43:01;;;;;;;2.13;1.27;;;11.80;99.90;;;;;;5076808;28;20521;-74
2023/09/04 03:45:33;;;;;;;2.67;1.40;;;11.80;99.90;;;;;;5076662;28;20060;-74
2023/09/04 03:47:58;;;;;;;5.18;1.70;;;11.80;99.90;;;;;;5076790;28;20031;-74
2023/09/04 03:50:24;;;;;;;3.10;1.40;;;11.80;99.90;;;;;;5076547;28;20025;-73
2023/09/04 03:52:50;;;;;;;1.63;0.82;;;11.80;99.90;;;;;;5058589;28;20034;-74
2023/09/04 03:55:16;;;;;;;2.35;1.23;;;11.70;99.90;;;;;;5058660;28;20013;-74
2023/09/04 03:57:51;;;;;;;1.70;1.10;;;11.60;99.90;;;;;;5058608;28;20029;-74
2023/09/04 04:00:20;;;;;;;10.93;2.17;;;11.60;99.90;;;;;;5076346;28;20103;-74
2023/09/04 04:02:47;;;;;;;2.92;1.33;;;11.60;99.90;;;;;;5058280;28;20028;-74
2023/09/04 04:05:14;;;;;;;2.85;1.50;;;11.60;99.90;;;;;;5076433;28;20009;-74
2023/09/04 04:07:40;;;;;;;3.75;1.15;;;11.50;99.90;;;;;;5076390;28;20187;-74
2023/09/04 04:10:06;;;;;;;1.83;1.20;;;11.50;99.90;;;;;;5076553;28;20537;-74
2023/09/04 04:12:32;;;;;;;2.47;1.63;;;11.50;99.90;;;;;;5076009;28;20397;-74
2023/09/04 04:14:58;;;;;;;3.20;0.90;;;11.50;99.90;;;;;;5075951;28;20024;-74
2023/09/04 04:17:25;;;;;;;2.88;1.45;;;11.40;99.90;;;;;;5058723;28;20475;-74
2023/09/04 04:19:53;;;;;;;2.20;0.98;;;11.40;99.90;;;;;;5076037;28;20027;-73
2023/09/04 04:22:20;;;;;;;2.15;1.30;;;11.40;99.90;;;;;;5075914;28;20070;-74
2023/09/04 04:24:48;;;;;;;1.83;1.25;;;11.40;99.90;;;;;;5075917;28;20484;-74
2023/09/04 04:27:15;;;;;;;6.80;1.80;;;11.30;99.90;;;;;;5075848;28;20389;-74
2023/09/04 04:29:45;;;;;;;4.28;1.83;;;11.30;99.90;;;;;;5075874;28;20480;-74
2023/09/04 04:32:10;;;;;;;2.58;1.13;;;11.20;99.90;;;;;;5075868;28;20395;-74
2023/09/04 04:34:36;;;;;;;3.28;1.70;;;11.20;99.90;;;;;;5075518;28;20032;-74
2023/09/04 04:37:01;;;;;;;2.22;1.10;;;11.20;99.90;;;;;;5075562;28;20028;-74
2023/09/04 04:39:27;;;;;;;3.45;1.80;;;11.20;99.90;;;;;;5057348;28;20021;-74
2023/09/04 04:41:53;;;;;;;2.28;1.40;;;11.20;99.90;;;;;;5057701;28;20023;-74
2023/09/04 04:44:19;;;;;;;3.50;1.90;;;11.20;99.90;;;;;;5057721;28;20070;-73
2023/09/04 04:46:46;;;;;;;4.32;2.25;;;11.20;99.90;;;;;;5075603;28;20074;-74
2023/09/04 04:49:13;;;;;;;1.95;1.27;;;11.20;99.90;;;;;;5075278;28;20031;-74
2023/09/04 04:51:38;;;;;;;3.42;1.40;;;11.20;99.90;;;;;;5075388;28;20475;-74
2023/09/04 04:54:04;;;;;;;3.08;1.35;;;11.20;99.90;;;;;;5075464;28;20028;-74
2023/09/04 04:56:29;;;;;;;2.92;1.73;;;11.20;99.90;;;;;;5075235;28;20024;-74
2023/09/04 04:58:55;;;;;;;3.63;2.47;;;11.30;99.90;;;;;;5075571;28;20044;-77
2023/09/04 05:01:20;;;;;;;4.20;2.42;;;11.30;99.90;;;;;;5075219;28;20013;-77
2023/09/04 05:03:46;;;;;;;3.30;1.52;;;11.30;99.90;;;;;;5075472;28;20017;-77
2023/09/04 05:06:12;;;;;;;3.45;1.80;;;11.40;99.90;;;;;;5075159;28;20020;-76
2023/09/04 05:08:37;;;;;;;3.03;1.65;;;11.40;99.90;;;;;;5075328;28;20040;-77
2023/09/04 05:11:05;;;;;;;3.33;2.20;;;11.40;99.90;;;;;;5075604;28;20099;-77
2023/09/04 05:13:33;;;;;;;4.15;2.40;;;11.50;99.90;;;;;;5075300;28;20030;-77
2023/09/04 05:16:03;;;;;;;2.42;1.70;;;11.60;99.90;;;;;;5057678;28;20023;-77
2023/09/04 05:18:30;;;;;;;4.75;2.50;;;11.60;99.90;;;;;;5075029;28;20016;-77
2023/09/04 05:20:55;;;;;;;3.60;2.50;;;11.60;99.90;;;;;;5057450;28;20016;-76
2023/09/04 05:23:21;;;;;;;4.85;2.85;;;12.00;99.90;;;;;;5075308;28;20024;-76
2023/09/04 05:25:51;;;;;;;4.75;3.28;;;11.80;99.90;;;;;;5075190;28;20024;-76
2023/09/04 05:28:17;;;;;;;5.40;3.13;;;11.90;99.90;;;;;;5074764;28;20028;-76
2023/09/04 05:30:42;;;;;;;4.80;3.08;;;11.90;99.90;;;;;;5075136;28;20471;-76
2023/09/04 05:33:08;;;;;;;6.28;3.25;;;12.00;99.90;;;;;;5056852;28;20032;-76
2023/09/04 05:35:34;;;;;;;6.38;3.28;;;12.10;99.90;;;;;;5057135;28;20056;-76
2023/09/04 05:37:59;;;;;;;5.80;3.30;;;12.10;99.90;;;;;;5056786;28;20384;-76
2023/09/04 05:40:26;;;;;;;7.03;3.38;;;12.30;99.90;;;;;;5056528;28;20016;-76
2023/09/04 05:42:52;;;;;;;5.88;4.13;;;12.90;99.90;;;;;;5056410;28;20411;-76
2023/09/04 05:45:19;;;;;;;5.78;3.40;;;12.60;99.90;;;;;;5074291;28;20017;-76
2023/09/04 05:47:46;;;;;;;5.85;3.70;;;12.60;99.90;;;;;;5056481;28;20017;-76
2023/09/04 05:50:12;;;;;;;7.45;3.47;;;12.70;99.90;;;;;;5055615;28;20078;-76
2023/09/04 05:52:37;;;;;;;5.18;3.42;;;12.70;99.90;;;;;;5074327;28;20483;-76
2023/09/04 05:55:03;;;;;;;7.00;3.65;;;12.90;99.90;;;;;;5074097;28;20051;-76
2023/09/04 05:57:29;;;;;;;9.02;3.72;;;12.90;99.90;;;;;;5074272;28;20066;-76
2023/09/04 05:59:55;;;;;;;4.78;3.22;;;13.10;99.90;;;;;;5056360;28;20028;-76
2023/09/04 06:02:21;;;;;;;7.90;3.83;;;13.20;99.90;;;;;;5074400;28;20549;-77
2023/09/04 06:04:46;;;;;;;5.70;3.72;;;13.30;99.90;;;;;;5057143;28;20074;-77
2023/09/04 06:07:14;;;;;;;7.43;3.35;;;13.40;99.90;;;;;;5075578;28;20029;-77
2023/09/04 06:09:40;;;;;;;6.07;3.85;;;13.80;99.90;;;;;;5074916;28;20017;-77
2023/09/04 06:12:08;;;;;;;6.40;3.65;;;13.60;99.90;;;;;;5057356;28;20024;-77
2023/09/04 06:14:34;;;;;;;4.72;3.10;;;13.70;99.90;;;;;;5075000;28;20052;-77
2023/09/04 06:17:00;;;;;;;5.18;2.72;;;13.70;99.90;;;;;;5074821;28;20017;-77
2023/09/04 06:19:25;;;;;;;7.70;3.38;;;13.80;99.90;;;;;;5075059;28;20028;-77
2023/09/04 06:21:51;;;;;;;5.95;3.28;;;13.90;99.90;;;;;;5075141;28;20365;-77
2023/09/04 06:24:17;;;;;;;6.50;3.63;;;13.90;99.90;;;;;;5056943;28;20480;-77
2023/09/04 06:26:42;;;;;;;6.05;3.63;;;14.00;99.90;;;;;;5074559;28;20480;-77
2023/09/04 06:29:08;;;;;;;5.25;3.42;;;14.10;99.90;;;;;;5074998;28;20044;-77
2023/09/04 06:31:33;;;;;;;6.88;3.92;;;14.40;99.90;;;;;;5057032;28;20036;-77
2023/09/04 06:34:03;;;;;;;9.77;3.70;;;14.50;99.90;;;;;;5074957;28;20031;-77
2023/09/04 06:36:29;;;;;;;8.60;3.92;;;14.60;99.90;;;;;;5074230;28;20052;-77
2023/09/04 06:38:55;;;;;;;5.57;3.30;;;14.70;99.90;;;;;;5074828;28;20052;-76
2023/09/04 06:41:21;;;;;;;5.78;3.50;;;14.90;99.90;;;;;;5074134;28;20027;-76
2023/09/04 06:43:47;;;;;;;5.38;3.28;;;15.00;99.90;;;;;;5056602;28;20112;-76
2023/09/04 06:46:13;;;;;;;4.57;2.90;;;15.20;99.90;;;;;;5074255;28;20071;-77
2023/09/04 06:48:39;;;;;;;5.72;3.33;;;15.30;99.90;;;;;;5074230;28;20032;-77
2023/09/04 06:51:05;;;;;;;5.93;3.97;;;15.70;99.90;;;;;;5056413;28;20097;-77
2023/09/04 06:53:31;;;;;;;5.88;3.72;;;15.60;99.90;;;;;;5074727;28;20020;-78
2023/09/04 06:55:57;;;;;;;8.20;3.47;;;15.70;99.90;;;;;;5056306;28;20042;-78
2023/09/04 06:58:26;;;;;;;6.68;3.17;;;15.80;99.90;;;;;;5055973;28;20017;-78
2023/09/04 07:00:55;;;;;;;5.07;3.08;;;16.00;99.90;;;;;;5055893;28;20479;-77
2023/09/04 07:03:22;;;;;;;6.15;3.28;;;16.10;99.90;;;;;;5074308;28;20491;-77
2023/09/04 07:05:47;;;;;;;5.80;3.50;;;16.20;99.90;;;;;;5074320;28;20538;-76
2023/09/04 07:08:13;;;;;;;6.20;3.17;;;16.20;99.90;;;;;;5074272;28;20025;-77
2023/09/04 07:10:39;;;;;;;5.47;3.60;;;16.40;99.90;;;;;;5074476;28;20566;-78
2023/09/04 07:13:04;;;;;;;5.70;3.38;;;16.40;99.90;;;;;;5073929;28;20498;-76
2023/09/04 07:15:30;;;;;;;6.38;3.20;;;16.60;99.90;;;;;;5074863;28;20372;-78
2023/09/04 07:17:59;;;;;;;5.25;2.88;;;16.70;99.90;;;;;;5054092;28;20017;-77
2023/09/04 07:20:29;;;;;;;5.90;2.85;;;16.80;99.90;;;;;;5054373;28;20025;-78
2023/09/04 07:22:55;;;;;;;5.93;2.67;;;17.00;99.90;;;;;;5054156;28;20075;-77
2023/09/04 07:25:21;;;;;;;6.55;3.58;;;17.10;99.90;;;;;;5063883;28;20020;-77
2023/09/04 07:27:46;;;;;;;7.07;3.15;;;17.20;99.90;;;;;;5073534;28;20091;-76
2023/09/04 07:30:12;;;;;;;5.47;3.38;;;17.30;99.90;;;;;;5055975;28;20104;-77
2023/09/04 07:32:37;;;;;;;4.75;2.78;;;17.50;99.90;;;;;;5074408;28;20087;-77
2023/09/04 07:35:03;;;;;;;4.50;2.78;;;17.70;99.90;;;;;;5074279;28;20021;-77
2023/09/04 07:37:29;;;;;;;4.20;2.42;;;17.70;99.90;;;;;;5056557;28;20109;-77
2023/09/04 07:39:55;;;;;;;4.25;2.30;;;17.80;99.90;;;;;;5056266;28;20055;-77
2023/09/04 07:42:26;;;;;;;4.28;2.60;;;17.80;99.90;;;;;;5055867;28;20048;-76
2023/09/04 07:44:52;;;;;;;6.18;3.58;;;18.00;99.90;;;;;;5073696;28;20024;-76
2023/09/04 07:47:17;;;;;;;6.70;2.38;;;17.90;99.90;;;;;;5074191;28;20031;-77
2023/09/04 07:49:43;;;;;;;3.50;2.75;;;18.10;99.90;;;;;;5074197;28;20029;-77
2023/09/04 07:52:09;;;;;;;3.65;1.77;;;18.20;99.90;;;;;;5056035;28;20028;-77
2023/09/04 07:54:34;;;;;;;5.05;2.03;;;18.30;99.90;;;;;;5074133;28;20024;-77
2023/09/04 07:57:02;;;;;;;2.47;1.83;;;18.40;99.90;;;;;;5056391;28;20031;-77
2023/09/04 07:59:28;;;;;;;3.33;1.85;;;18.50;99.90;;;;;;5056075;28;20027;-77
2023/09/04 08:01:54;;;;;;;2.65;1.92;;;18.60;99.90;;;;;;5074080;28;20024;-76
2023/09/04 08:04:19;;;;;;;5.68;2.47;;;18.60;99.90;;;;;;5073251;28;20028;-77
2023/09/04 08:06:45;;;;;;;5.18;2.67;;;18.70;99.90;;;;;;5073009;28;20056;-76
2023/09/04 08:09:11;;;;;;;2.88;1.88;;;18.80;99.90;;;;;;5055357;28;20036;-77
2023/09/04 08:11:36;;;;;;;3.22;2.13;;;18.80;99.90;;;;;;5073691;28;20031;-77
2023/09/04 08:14:02;;;;;;;4.30;2.13;;;18.90;99.90;;;;;;5075596;28;20107;-77
2023/09/04 08:16:28;;;;;;;3.80;2.50;;;19.00;99.90;;;;;;5059554;28;20028;-77
2023/09/04 08:18:53;;;;;;;3.00;2.10;;;19.00;99.90;;;;;;5077289;28;20029;-77
2023/09/04 08:21:19;;;;;;;5.80;2.17;;;19.10;99.90;;;;;;5077431;28;20027;-77
2023/09/04 08:23:45;;;;;;;4.63;2.40;;;19.40;99.90;;;;;;5059525;28;20028;-77
2023/09/04 08:26:13;;;;;;;4.72;2.10;;;19.30;99.90;;;;;;5076951;28;20028;-77
2023/09/04 08:28:39;;;;;;;;;;;19.40;99.90;;;;;;5076893;28;20574;-76
2023/09/04 08:31:05;;;;;;;4.72;2.03;;;19.50;99.90;;;;;;5076731;28;19904;-77
2023/09/04 08:33:32;;;;;;;3.67;1.88;;;19.60;99.90;;;;;;5059680;28;20032;-77
2023/09/04 08:35:57;;;;;;;5.68;2.28;;;19.80;99.90;;;;;;5076740;28;20056;-77
2023/09/04 08:38:23;;;;;;;2.75;1.80;;;19.90;99.90;;;;;;5059409;28;20032;-77
2023/09/04 08:40:48;;;;;;;4.05;1.70;;;20.00;99.90;;;;;;5077246;28;20025;-77
2023/09/04 08:43:17;;;;;;;10.20;1.90;;;20.10;99.90;;;;;;5077604;28;20380;-77
2023/09/04 08:45:43;;;;;;;4.05;1.95;;;20.20;99.90;;;;;;5058968;28;20032;-77
2023/09/04 08:48:11;;;;;;;6.65;1.67;;;20.30;99.90;;;;;;5077129;28;20025;-77
2023/09/04 08:50:37;;;;;;;5.43;1.85;;;20.40;99.90;;;;;;5059312;28;20483;-77
2023/09/04 08:53:04;;;;;;;3.65;1.65;;;20.60;99.90;;;;;;5075776;28;20031;-77
2023/09/04 08:55:30;;;;;;;2.90;1.02;;;20.70;99.90;;;;;;5057976;28;20016;-77
2023/09/04 08:57:57;;;;;;;5.43;1.30;;;20.70;99.90;;;;;;5057656;28;20020;-77
2023/09/04 09:00:23;;;;;;;2.53;1.73;;;20.80;99.90;;;;;;5057992;28;20108;-77
2023/09/04 09:02:50;;;;;;;4.93;1.05;;;20.90;99.90;;;;;;5075780;28;20052;-77
2023/09/04 09:05:19;;;;;;;4.38;1.45;;;21.00;99.90;;;;;;5075349;28;20078;-77
2023/09/04 09:07:46;;;;;;;3.90;2.05;;;21.10;99.90;;;;;;5075676;28;20021;-77
2023/09/04 09:10:17;;;;;;;2.88;1.65;;;21.20;99.90;;;;;;5075799;28;20032;-77
2023/09/04 09:12:45;;;;;;;3.00;1.67;;;21.30;99.90;;;;;;5075624;28;20025;-74
2023/09/04 09:15:11;;;;;;;1.67;1.20;;;21.40;99.90;;;;;;5075710;28;20027;-75
2023/09/04 09:17:50;;;;;;;3.67;1.27;;;21.60;99.90;;;;;;5075581;28;20028;-75
2023/09/04 09:20:32;;;;;;;3.10;2.33;;;21.70;99.90;;;;;;5075735;28;20384;-75
2023/09/04 09:23:00;;;;;;;2.75;1.23;;;21.80;99.90;;;;;;5076315;28;20059;-74
2023/09/04 09:25:27;;;;;;;2.28;1.08;;;21.90;99.90;;;;;;5075368;28;20066;-75
2023/09/04 09:28:01;;;;;;;3.58;1.10;;;21.90;99.90;;;;;;5075532;28;20032;-75
2023/09/04 09:30:34;;;;;;;1.95;0.88;;;22.00;99.90;;;;;;5075331;28;20119;-75
2023/09/04 09:33:03;;;;;;;1.45;0.57;;;22.00;99.90;;;;;;5075109;28;20016;-75
2023/09/04 09:35:33;;;;;;;2.05;0.85;;;22.10;99.90;;;;;;5074931;28;20066;-75
2023/09/04 09:38:01;;;;;;;3.38;0.93;;;22.20;99.90;;;;;;5056402;28;20399;-75
2023/09/04 09:40:28;;;;;;;4.53;1.15;;;22.30;99.90;;;;;;5075210;28;20028;-75
2023/09/04 09:42:54;;;;;;;3.47;0.63;;;22.40;99.90;;;;;;5075117;28;20017;-75
2023/09/04 09:45:20;;;;;;;3.03;1.52;;;22.50;99.90;;;;;;5074895;28;20090;-75
2023/09/04 09:47:46;;;;;;;2.45;1.13;;;22.60;99.90;;;;;;5075392;28;20023;-75
2023/09/04 09:50:14;;;;;;;2.65;0.77;;;22.70;99.90;;;;;;5074865;28;20028;-76
2023/09/04 09:52:59;;;;;;;1.77;0.85;;;22.80;99.90;;;;;;5057092;28;20230;-76
2023/09/04 09:55:26;;;;;;;2.08;0.75;;;22.90;99.90;;;;;;5074662;28;20029;-75
2023/09/04 09:57:56;;;;;;;1.95;0.57;;;23.00;99.90;;;;;;5074642;28;20498;-74
2023/09/04 10:00:22;;;;;;;2.13;0.75;;;23.10;99.90;;;;;;5056426;28;20078;-76
2023/09/04 10:02:48;;;;;;;3.10;0.47;;;23.20;99.90;;;;;;5074420;28;20012;-75
2023/09/04 10:05:14;;;;;;;3.20;0.38;;;23.30;99.90;;;;;;5074408;28;20024;-74
2023/09/04 10:07:42;;;;;;;1.92;0.50;;;23.50;99.90;;;;;;5074879;28;20108;-74
2023/09/04 10:10:08;;;;;;;1.50;0.87;;;23.70;99.90;;;;;;5074452;28;20028;-75
2023/09/04 10:12:34;;;;;;;1.95;0.28;;;23.80;99.90;;;;;;5074350;28;20023;-74
2023/09/04 10:15:00;;;;;;;0.88;0.43;;;23.90;99.90;;;;;;5056616;28;20024;-74
2023/09/04 10:17:49;;;;;;;2.67;1.15;;;24.10;99.90;;;;;;5056698;28;20016;-74
2023/09/04 10:20:15;;;;;;;1.27;0.50;;;24.10;99.90;;;;;;5074144;28;20532;-74
2023/09/04 10:22:52;;;;;;;2.25;0.70;;;24.30;99.90;;;;;;5073974;28;20049;-75
2023/09/04 10:25:35;;;;;;;0.95;0.30;;;24.40;99.90;;;;;;5074325;28;20031;-74
2023/09/04 10:28:09;;;;;;;1.95;0.73;;;24.50;99.90;;;;;;5056480;28;20024;-75
2023/09/04 10:30:38;;;;;;;3.33;0.75;;;24.60;99.90;;;;;;5073769;28;20024;-76
2023/09/04 10:33:04;;;;;;;3.83;1.10;;;24.60;99.90;;;;;;5073923;28;20020;-75
2023/09/04 10:35:31;;;;;;;3.22;0.80;;;24.70;99.90;;;;;;5073957;28;20102;-75
2023/09/04 10:37:58;;;;;;;3.78;0.68;;;24.70;99.90;;;;;;5073511;28;20024;-75
2023/09/04 10:40:23;;;;;;;4.15;0.75;;;24.80;99.90;;;;;;5055784;28;20025;-75
2023/09/04 10:42:50;;;;;;;3.30;0.90;;;25.00;99.90;;;;;;5073959;28;20047;-75
2023/09/04 10:45:18;;;;;;;3.05;0.40;;;25.10;99.90;;;;;;5073704;28;20027;-75
2023/09/04 10:47:46;;;;;;;1.52;0.73;;;25.20;99.90;;;;;;5074264;28;20021;-75
2023/09/04 10:50:33;;;;;;;1.60;0.67;;;25.30;99.90;;;;;;5056141;28;20020;-74
2023/09/04 10:53:04;;;;;;;1.02;0.75;;;25.50;99.90;;;;;;5073855;28;20038;-75
2023/09/04 10:55:30;;;;;;;3.13;1.05;;;25.60;99.90;;;;;;5074191;28;20017;-74
2023/09/04 10:58:01;;;;;;;1.23;0.77;;;25.90;99.90;;;;;;5073982;28;20024;-75
2023/09/04 11:00:34;;;;;;;2.67;0.73;;;26.10;99.90;;;;;;5073959;28;20387;-75
2023/09/04 11:03:18;;;;;;;2.15;0.63;;;26.30;99.90;;;;;;5056034;28;20021;-75
2023/09/04 11:06:03;;;;;;;2.20;0.32;;;26.40;99.90;;;;;;5055526;28;20099;-75
2023/09/04 11:08:29;;;;;;;0.40;0.20;;;26.40;99.90;;;;;;5073873;28;20146;-75
2023/09/04 11:11:06;;;;;;;0.50;0.20;;;26.50;99.90;;;;;;5073796;28;20056;-74
2023/09/04 11:13:40;;;;;;;0.08;0.00;;;26.50;99.90;;;;;;5074014;28;20025;-74
2023/09/04 11:16:07;;;;;;;0.30;0.30;;;26.60;99.90;;;;;;5073851;28;20017;-74
2023/09/04 11:18:37;;;;;;;1.65;0.10;;;26.70;99.90;;;;;;5073629;28;20024;-75
2023/09/04 11:21:04;;;;;;;0.60;0.10;;;26.90;99.90;;;;;;5073487;28;20023;-74
2023/09/04 11:23:31;;;;;;;1.08;0.35;;;26.90;99.80;;;;;;5072956;28;20032;-74
2023/09/04 11:25:57;;;;;;;0.90;0.20;;;27.00;99.00;;;;;;5073374;28;20043;-74
2023/09/04 11:28:25;;;;;;;0.75;0.30;;;27.10;99.10;;;;;;5073503;28;20024;-75
2023/09/04 11:30:58;;;;;;;0.40;0.00;;;27.10;99.50;;;;;;5074023;28;20036;-74
2023/09/04 11:33:29;;;;;;;1.27;0.20;;;27.10;98.90;;;;;;5055739;28;20091;-75
2023/09/04 11:36:04;;;;;;;1.70;0.20;;;27.30;98.90;;;;;;5073399;28;20063;-75
2023/09/04 11:38:32;;;;;;;0.75;0.30;;;27.30;99.20;;;;;;5054059;28;20036;-75
2023/09/04 11:40:58;;;;;;;0.30;0.10;;;27.60;99.50;;;;;;5035307;28;20017;-75
2023/09/04 11:43:25;;;;;;;2.97;0.57;;;27.80;99.10;;;;;;5053888;28;20033;-75
2023/09/04 11:46:01;;;;;;;0.63;0.20;;;28.00;99.90;;;;;;5053799;28;20029;-75
2023/09/04 11:48:27;;;;;;;0.80;0.10;;;28.20;99.80;;;;;;5054216;28;20489;-74
2023/09/04 11:50:54;;;;;;;0.35;0.35;;;28.40;99.60;;;;;;5057192;28;20103;-74
2023/09/04 11:53:22;;;;;;;3.22;0.35;;;28.50;98.10;;;;;;5057213;28;20123;-75
2023/09/04 11:55:47;;;;;;;0.98;0.20;;;28.50;98.50;;;;;;5057097;28;20021;-75
2023/09/04 11:58:14;;;;;;;0.90;0.20;;;28.60;98.80;;;;;;5057269;28;20021;-75
2023/09/04 12:00:40;;;;;;;1.08;0.10;;;28.70;97.40;;;;;;5039368;28;20048;-75
2023/09/04 12:03:06;;;;;;;2.30;0.10;;;28.90;97.80;;;;;;5057267;28;20369;-75
2023/09/04 12:05:33;;;;;;;0.30;0.10;;;29.10;96.40;;;;;;5056886;28;20021;-75
2023/09/04 12:07:58;;;;;;;0.50;0.10;;;29.10;95.50;;;;;;5056949;28;20060;-75
2023/09/04 12:10:24;;;;;;;1.55;0.20;;;29.10;95.90;;;;;;5056691;28;20025;-75
2023/09/04 12:12:52;;;;;;;2.72;0.20;;;29.00;96.10;;;;;;5056735;28;20059;-75
2023/09/04 12:15:28;;;;;;;0.22;0.00;;;29.00;95.50;;;;;;5056841;28;20021;-75
2023/09/04 12:17:54;;;;;;;0.30;0.13;;;29.00;95.40;;;;;;5056534;28;20495;-74
2023/09/04 12:20:20;;;;;;;0.20;0.10;;;29.10;95.40;;;;;;5056656;28;20099;-75
2023/09/04 12:22:55;;;;;;;5.82;0.05;;;29.30;95.60;;;;;;5056763;28;20511;-74
2023/09/04 12:25:25;;;;;;;0.30;0.10;;;29.50;95.80;;;;;;5056458;28;20468;-75
2023/09/04 12:27:51;;;;;;;1.13;0.30;;;29.80;95.20;;;;;;5057008;28;20021;-75
2023/09/04 12:30:16;;;;;;;0.50;0.03;;;30.10;94.70;;;;;;5056688;28;20036;-75
2023/09/04 12:32:42;;;;;;;0.60;0.10;;;30.20;94.30;;;;;;5038495;28;20025;-75
2023/09/04 12:35:09;;;;;;;0.60;0.10;;;30.30;93.60;;;;;;5071873;28;20117;-75
2023/09/04 12:37:35;;;;;;;3.08;0.30;;;30.50;93.70;;;;;;5076487;28;20024;-75
2023/09/04 12:40:01;;;;;;;3.45;0.25;;;30.50;93.80;;;;;;5076443;28;20028;-75
2023/09/04 12:42:27;;;;;;;0.43;0.10;;;30.70;93.60;;;;;;5076694;28;20031;-75
2023/09/04 12:44:54;;;;;;;3.80;0.10;;;30.90;92.50;;;;;;5076607;28;20035;-75
2023/09/04 12:47:21;;;;;;;1.98;0.20;;;31.00;92.00;;;;;;5076296;28;20045;-74